createdAt,value
2022-10-28T00:00:57.589Z,2.37
2022-10-28T00:03:25.108Z,2.30
2022-10-28T00:05:54.465Z,2.30
2022-10-28T00:08:24.542Z,2.57
2022-10-28T00:10:54.853Z,2.20
2022-10-28T00:13:22.193Z,2.17
2022-10-28T00:15:49.553Z,2.20
2022-10-28T00:18:16.880Z,2.40
2022-10-28T00:20:44.237Z,2.40
2022-10-28T00:23:11.616Z,2.43
2022-10-28T00:25:38.985Z,2.13
2022-10-28T00:28:06.371Z,2.47
2022-10-28T00:30:33.772Z,2.10
2022-10-28T00:33:01.141Z,2.40
2022-10-28T00:35:28.578Z,2.40
2022-10-28T00:37:55.938Z,2.40
2022-10-28T00:40:23.393Z,2.50
2022-10-28T00:42:51.882Z,2.53
2022-10-28T00:45:19.498Z,2.83
2022-10-28T00:47:56.067Z,2.80
2022-10-28T00:50:31.952Z,2.80
2022-10-28T00:53:02.072Z,2.50
2022-10-28T00:55:29.806Z,2.47
2022-10-28T00:57:58.334Z,2.37
2022-10-28T01:00:26.403Z,2.33
2022-10-28T01:02:53.850Z,2.93
2022-10-28T01:05:27.569Z,2.50
2022-10-28T01:07:56.739Z,2.50
2022-10-28T01:10:29.663Z,2.23
2022-10-28T01:13:06.213Z,2.33
2022-10-28T01:15:42.617Z,2.67
2022-10-28T01:18:09.976Z,2.10
2022-10-28T01:20:40.873Z,2.67
2022-10-28T01:23:28.729Z,2.83
2022-10-28T01:25:56.065Z,2.37
2022-10-28T01:28:52.452Z,2.60
2022-10-28T01:31:28.912Z,2.87
2022-10-28T01:34:08.925Z,2.87
2022-10-28T01:36:36.255Z,2.87
2022-10-28T01:39:24.282Z,3.20
2022-10-28T01:41:54.800Z,2.93
2022-10-28T01:44:26.171Z,2.87
2022-10-28T01:47:05.673Z,3.00
2022-10-28T01:49:39.572Z,3.00
2022-10-28T01:52:09.940Z,2.60
2022-10-28T01:54:37.808Z,2.57
2022-10-28T01:57:05.907Z,2.50
2022-10-28T01:59:34.928Z,2.80
2022-10-28T02:04:34.555Z,2.43
2022-10-28T02:07:02.188Z,2.73
2022-10-28T02:09:35.763Z,2.57
2022-10-28T02:12:03.113Z,2.70
2022-10-28T02:14:36.709Z,3.03
2022-10-28T02:17:04.078Z,2.50
2022-10-28T02:20:00.778Z,2.60
2022-10-28T02:22:33.849Z,2.63
2022-10-28T02:25:01.184Z,2.73
2022-10-28T02:27:37.603Z,3.13
2022-10-28T02:30:07.603Z,2.60
2022-10-28T02:32:38.586Z,2.80
2022-10-28T02:35:08.535Z,2.70
2022-10-28T02:37:37.300Z,3.00
2022-10-28T02:40:07.457Z,2.80
2022-10-28T02:42:37.407Z,2.77
2022-10-28T02:45:11.319Z,2.50
2022-10-28T02:47:40.402Z,2.57
2022-10-28T02:50:10.871Z,2.47
2022-10-28T02:52:40.467Z,2.67
2022-10-28T02:55:08.005Z,2.50
2022-10-28T02:57:36.660Z,2.20
2022-10-28T03:00:09.162Z,2.60
2022-10-28T03:02:36.566Z,2.37
2022-10-28T03:05:07.115Z,2.70
2022-10-28T03:07:34.545Z,2.67
2022-10-28T03:10:02.034Z,2.30
2022-10-28T03:12:29.375Z,2.67
2022-10-28T03:14:56.730Z,2.70
2022-10-28T03:17:24.097Z,2.70
2022-10-28T03:19:53.566Z,2.30
2022-10-28T03:22:20.939Z,2.57
2022-10-28T03:24:48.314Z,2.63
2022-10-28T03:27:15.636Z,2.30
2022-10-28T03:29:45.753Z,2.50
2022-10-28T03:32:13.650Z,2.90
2022-10-28T03:34:41.101Z,2.67
2022-10-28T03:37:08.530Z,2.87
2022-10-28T03:39:35.994Z,2.80
2022-10-28T03:42:03.497Z,3.20
2022-10-28T03:44:30.958Z,3.13
2022-10-28T03:46:58.380Z,3.03
2022-10-28T03:49:25.842Z,3.60
2022-10-28T03:51:53.201Z,4.10
2022-10-28T03:54:20.654Z,3.73
2022-10-28T03:56:48.026Z,3.77
2022-10-28T03:59:19.183Z,3.00
2022-10-28T04:01:47.820Z,3.00
2022-10-28T04:04:15.243Z,3.60
2022-10-28T04:06:42.705Z,3.47
2022-10-28T04:09:10.043Z,3.50
2022-10-28T04:11:37.396Z,3.40
2022-10-28T04:14:04.838Z,3.97
2022-10-28T04:16:32.150Z,3.57
2022-10-28T04:18:59.605Z,5.07
2022-10-28T04:21:26.936Z,3.50
2022-10-28T04:23:54.291Z,3.57
2022-10-28T04:26:21.673Z,4.10
2022-10-28T04:28:49.008Z,4.67
2022-10-28T04:31:16.389Z,4.07
2022-10-28T04:33:43.762Z,4.00
2022-10-28T04:36:11.108Z,5.03
2022-10-28T04:38:38.504Z,6.37
2022-10-28T04:41:05.928Z,4.90
2022-10-28T04:43:33.322Z,4.70
2022-10-28T04:46:05.978Z,4.63
2022-10-28T04:48:34.102Z,4.60
2022-10-28T04:51:01.645Z,6.37
2022-10-28T04:53:29.122Z,5.47
2022-10-28T04:56:00.513Z,4.80
2022-10-28T04:58:27.922Z,5.93
2022-10-28T05:00:55.394Z,5.40
2022-10-28T05:03:22.867Z,5.23
2022-10-28T05:05:50.220Z,7.20
2022-10-28T05:08:17.630Z,7.67
2022-10-28T05:10:48.845Z,6.00
2022-10-28T05:13:16.306Z,7.17
2022-10-28T05:15:43.813Z,5.60
2022-10-28T05:18:11.201Z,5.57
2022-10-28T05:20:38.606Z,5.83
2022-10-28T05:23:05.996Z,5.93
2022-10-28T05:25:33.359Z,6.07
2022-10-28T05:28:01.321Z,4.93
2022-10-28T05:30:29.197Z,6.27
2022-10-28T05:33:01.582Z,5.77
2022-10-28T05:35:29.894Z,5.43
2022-10-28T05:37:57.382Z,7.40
2022-10-28T05:40:25.123Z,6.53
2022-10-28T05:42:52.829Z,6.27
2022-10-28T05:45:20.550Z,6.50
2022-10-28T05:47:48.895Z,5.53
2022-10-28T05:50:17.616Z,6.30
2022-10-28T05:52:52.142Z,8.07
2022-10-28T05:55:20.257Z,7.30
2022-10-28T05:57:48.454Z,5.10
2022-10-28T06:00:16.180Z,6.27
2022-10-28T06:02:43.636Z,5.33
2022-10-28T06:05:11.264Z,6.67
2022-10-28T06:07:39.333Z,5.90
2022-10-28T06:10:07.333Z,5.07
2022-10-28T06:15:00.791Z,6.17
2022-10-28T06:17:28.179Z,7.10
2022-10-28T06:19:55.490Z,7.60
2022-10-28T06:22:22.883Z,5.27
2022-10-28T06:24:50.229Z,6.30
2022-10-28T06:27:17.631Z,6.50
2022-10-28T06:29:44.937Z,6.20
2022-10-28T06:32:12.323Z,6.60
2022-10-28T06:34:39.799Z,7.00
2022-10-28T06:37:08.971Z,6.07
2022-10-28T06:39:39.338Z,5.77
2022-10-28T06:42:06.673Z,6.47
2022-10-28T06:44:34.107Z,5.93
2022-10-28T06:47:02.985Z,5.53
2022-10-28T06:49:30.903Z,5.63
2022-10-28T06:51:58.261Z,6.57
2022-10-28T06:54:25.624Z,7.10
2022-10-28T06:56:53.204Z,6.23
2022-10-28T06:59:20.621Z,14.83
2022-10-28T07:01:48.107Z,8.43
2022-10-28T07:04:15.560Z,13.47
2022-10-28T07:06:42.972Z,7.07
2022-10-28T07:09:14.331Z,7.13
2022-10-28T07:11:43.888Z,6.93
2022-10-28T07:14:11.373Z,7.40
2022-10-28T07:16:38.820Z,7.63
2022-10-28T07:19:06.281Z,6.30
2022-10-28T07:21:33.688Z,6.50
2022-10-28T07:24:01.232Z,6.40
2022-10-28T07:26:28.819Z,7.10
2022-10-28T07:28:56.226Z,6.90
2022-10-28T07:31:23.724Z,6.90
2022-10-28T07:33:54.521Z,7.47
2022-10-28T07:36:22.386Z,6.67
2022-10-28T07:38:53.421Z,6.50
2022-10-28T07:41:21.510Z,7.07
2022-10-28T07:43:52.072Z,6.97
2022-10-28T07:46:19.797Z,7.20
2022-10-28T07:48:47.450Z,6.97
2022-10-28T07:51:15.863Z,7.07
2022-10-28T07:53:43.302Z,6.37
2022-10-28T07:56:13.759Z,6.63
2022-10-28T07:58:41.672Z,6.37
2022-10-28T08:01:09.873Z,6.63
2022-10-28T08:03:39.060Z,7.20
2022-10-28T08:06:16.179Z,6.23
2022-10-28T08:08:44.197Z,7.13
2022-10-28T08:11:11.668Z,6.87
2022-10-28T08:13:40.341Z,8.13
2022-10-28T08:16:08.297Z,7.40
2022-10-28T08:18:36.350Z,7.70
2022-10-28T08:21:04.596Z,7.23
2022-10-28T08:23:32.437Z,7.43
2022-10-28T08:26:00.025Z,7.50
2022-10-28T08:28:27.689Z,7.27
2022-10-28T08:31:08.374Z,7.63
2022-10-28T08:33:38.060Z,6.57
2022-10-28T08:36:05.692Z,6.10
2022-10-28T08:38:33.105Z,6.97
2022-10-28T08:41:19.371Z,6.83
2022-10-28T08:43:58.093Z,7.33
2022-10-28T08:46:44.421Z,6.43
2022-10-28T08:49:16.667Z,6.17
2022-10-28T08:51:47.054Z,6.40
2022-10-28T08:54:16.638Z,6.20
2022-10-28T08:56:46.293Z,6.50
2022-10-28T08:59:25.058Z,6.60
2022-10-28T09:02:00.727Z,7.03
2022-10-28T09:04:31.145Z,6.60
2022-10-28T09:06:58.535Z,6.37
2022-10-28T09:09:25.870Z,6.90
2022-10-28T09:12:05.477Z,6.87
2022-10-28T09:14:51.748Z,7.03
2022-10-28T09:17:20.343Z,6.97
2022-10-28T09:19:52.367Z,7.00
2022-10-28T09:22:30.293Z,7.53
2022-10-28T09:25:00.752Z,7.40
2022-10-28T09:27:31.212Z,5.63
2022-10-28T09:29:58.701Z,4.93
2022-10-28T09:32:32.333Z,5.47
2022-10-28T09:35:26.139Z,4.70
2022-10-28T09:37:56.098Z,4.00
2022-10-28T09:40:26.181Z,4.20
2022-10-28T09:43:08.489Z,4.40
2022-10-28T09:45:37.983Z,4.40
2022-10-28T09:48:10.398Z,4.10
2022-10-28T09:50:37.825Z,3.60
2022-10-28T09:53:24.119Z,4.20
2022-10-28T09:55:51.772Z,3.93
2022-10-28T09:58:19.780Z,3.90
2022-10-28T10:00:47.370Z,3.63
2022-10-28T10:03:16.495Z,3.90
2022-10-28T10:05:45.901Z,3.63
2022-10-28T10:08:17.437Z,3.67
2022-10-28T10:10:53.857Z,3.70
2022-10-28T10:13:23.541Z,3.40
2022-10-28T10:15:55.953Z,3.77
2022-10-28T10:18:28.098Z,3.20
2022-10-28T10:20:58.675Z,3.30
2022-10-28T10:23:32.466Z,3.10
2022-10-28T10:26:11.111Z,3.13
2022-10-28T10:28:43.098Z,3.00
2022-10-28T10:31:17.844Z,3.00
2022-10-28T10:33:49.294Z,3.17
2022-10-28T10:36:17.658Z,2.60
2022-10-28T10:38:49.244Z,2.93
2022-10-28T10:41:55.508Z,2.97
2022-10-28T10:44:22.909Z,2.70
2022-10-28T10:46:55.982Z,2.97
2022-10-28T10:49:23.439Z,2.77
2022-10-28T10:51:54.760Z,2.90
2022-10-28T10:54:23.739Z,2.60
2022-10-28T10:56:51.399Z,2.93
2022-10-28T10:59:31.887Z,3.00
2022-10-28T11:02:00.277Z,3.30
2022-10-28T11:04:30.267Z,3.00
2022-10-28T11:06:58.677Z,2.70
2022-10-28T11:09:31.420Z,2.90
2022-10-28T11:11:58.885Z,2.70
2022-10-28T11:14:33.111Z,2.88
2022-10-28T11:17:01.575Z,3.00
2022-10-28T11:19:29.876Z,3.00
2022-10-28T11:21:57.233Z,2.88
2022-10-28T11:24:30.617Z,2.70
2022-10-28T11:27:05.308Z,2.58
2022-10-28T11:29:32.861Z,2.80
2022-10-28T11:32:06.551Z,2.78
2022-10-28T11:34:36.735Z,3.13
2022-10-28T11:37:09.674Z,2.90
2022-10-28T11:39:55.501Z,2.60
2022-10-28T11:42:41.278Z,2.60
2022-10-28T11:45:11.687Z,2.58
2022-10-28T11:48:00.102Z,2.60
2022-10-28T11:50:33.223Z,2.47
2022-10-28T11:53:00.566Z,2.67
2022-10-28T11:55:34.668Z,2.63
2022-10-28T11:58:17.400Z,2.63
2022-10-28T12:01:01.511Z,2.72
2022-10-28T12:03:35.074Z,2.40
2022-10-28T12:06:14.725Z,3.00
2022-10-28T12:09:00.982Z,2.70
2022-10-28T12:11:28.386Z,2.45
2022-10-28T12:16:56.931Z,2.85
2022-10-28T12:19:44.583Z,2.75
2022-10-28T12:22:19.519Z,2.60
2022-10-28T12:24:47.772Z,2.55
2022-10-28T12:27:30.811Z,2.78
2022-10-28T12:30:01.174Z,2.58
2022-10-28T12:32:30.883Z,2.72
2022-10-28T12:35:01.571Z,2.40
2022-10-28T12:37:32.438Z,2.80
2022-10-28T12:39:59.823Z,2.45
2022-10-28T12:42:33.411Z,2.53
2022-10-28T12:45:04.463Z,2.67
2022-10-28T12:47:42.107Z,2.78
2022-10-28T12:50:32.545Z,2.65
2022-10-28T12:53:07.492Z,2.65
2022-10-28T12:55:43.239Z,2.75
2022-10-28T12:58:28.959Z,2.80
2022-10-28T13:00:58.471Z,2.75
2022-10-28T13:03:27.921Z,2.70
2022-10-28T13:06:07.665Z,2.58
2022-10-28T13:08:44.256Z,2.88
2022-10-28T13:11:30.220Z,2.70
2022-10-28T13:14:23.968Z,3.08
2022-10-28T13:16:54.167Z,2.60
2022-10-28T13:19:36.935Z,3.13
2022-10-28T13:22:22.799Z,2.60
2022-10-28T13:25:03.086Z,2.53
2022-10-28T13:27:30.956Z,2.70
2022-10-28T13:29:59.677Z,2.60
2022-10-28T13:32:38.590Z,2.90
2022-10-28T13:35:21.501Z,2.85
2022-10-28T13:37:49.909Z,3.00
2022-10-28T13:40:33.844Z,2.90
2022-10-28T13:43:02.267Z,2.72
2022-10-28T13:45:49.768Z,2.60
2022-10-28T13:48:29.523Z,2.47
2022-10-28T13:51:12.339Z,2.45
2022-10-28T13:53:43.927Z,2.30
2022-10-28T13:56:29.882Z,2.22
2022-10-28T13:59:15.465Z,2.10
2022-10-28T14:01:43.057Z,2.42
2022-10-28T14:04:24.618Z,2.38
2022-10-28T14:07:01.069Z,2.22
2022-10-28T14:09:29.903Z,2.20
2022-10-28T14:12:17.452Z,2.25
2022-10-28T14:14:52.645Z,2.20
2022-10-28T14:17:24.121Z,2.20
2022-10-28T14:19:52.808Z,1.90
2022-10-28T14:22:33.821Z,2.00
2022-10-28T14:25:01.587Z,2.28
2022-10-28T14:27:44.562Z,2.15
2022-10-28T14:30:13.336Z,2.10
2022-10-28T14:32:50.048Z,2.00
2022-10-28T14:35:17.436Z,2.10
2022-10-28T14:38:03.329Z,1.88
2022-10-28T14:40:30.735Z,1.90
2022-10-28T14:42:58.079Z,1.92
2022-10-28T14:45:32.667Z,2.00
2022-10-28T14:48:15.426Z,2.10
2022-10-28T14:50:50.461Z,1.83
2022-10-28T14:53:24.642Z,2.10
2022-10-28T14:55:56.851Z,2.13
2022-10-28T14:58:25.411Z,2.10
2022-10-28T15:01:11.491Z,2.10
2022-10-28T15:03:39.568Z,2.05
2022-10-28T15:06:25.816Z,1.80
2022-10-28T15:08:54.210Z,2.17
2022-10-28T15:11:22.245Z,1.92
2022-10-28T15:13:53.419Z,2.00
2022-10-28T15:16:24.934Z,2.05
2022-10-28T15:18:53.809Z,2.22
2022-10-28T15:21:22.866Z,2.22
2022-10-28T15:24:00.460Z,2.00
2022-10-28T15:26:28.124Z,2.70
2022-10-28T15:28:56.038Z,2.00
2022-10-28T15:31:23.592Z,2.20
2022-10-28T15:33:50.951Z,2.00
2022-10-28T15:36:27.853Z,2.00
2022-10-28T15:38:55.230Z,2.05
2022-10-28T15:41:40.110Z,2.30
2022-10-28T15:44:22.833Z,2.22
2022-10-28T15:46:50.816Z,2.17
2022-10-28T15:49:40.436Z,1.83
2022-10-28T15:52:19.895Z,1.80
2022-10-28T15:54:57.131Z,1.88
2022-10-28T15:57:25.475Z,1.98
2022-10-28T16:00:11.396Z,1.80
2022-10-28T16:02:42.974Z,2.00
2022-10-28T16:05:36.885Z,2.10
2022-10-28T16:08:06.281Z,2.00
2022-10-28T16:10:43.160Z,2.20
2022-10-28T16:13:18.180Z,1.90
2022-10-28T16:15:54.760Z,2.10
2022-10-28T16:18:23.520Z,1.98
2022-10-28T16:20:51.317Z,2.03
2022-10-28T16:23:20.397Z,2.00
2022-10-28T16:25:47.880Z,1.80
2022-10-28T16:28:21.749Z,1.70
2022-10-28T16:30:51.473Z,1.98
2022-10-28T16:33:19.427Z,2.00
2022-10-28T16:35:46.790Z,1.88
2022-10-28T16:38:14.792Z,1.70
2022-10-28T16:40:57.600Z,2.25
2022-10-28T16:43:25.945Z,2.03
2022-10-28T16:45:54.204Z,8.23
2022-10-28T16:48:23.373Z,7.78
2022-10-28T16:50:52.608Z,3.70
2022-10-28T16:53:20.058Z,3.08
2022-10-28T16:55:47.737Z,2.90
2022-10-28T16:58:15.288Z,2.40
2022-10-28T17:00:42.797Z,2.55
2022-10-28T17:03:15.197Z,2.35
2022-10-28T17:05:43.954Z,2.50
2022-10-28T17:08:11.818Z,2.70
2022-10-28T17:10:40.509Z,2.60
2022-10-28T17:13:10.364Z,2.10
2022-10-28T17:15:37.841Z,2.60
2022-10-28T17:18:05.210Z,2.60
2022-10-28T17:20:33.763Z,2.35
2022-10-28T17:23:01.326Z,2.60
2022-10-28T17:25:28.684Z,2.60
2022-10-28T17:27:56.783Z,2.78
2022-10-28T17:30:24.388Z,3.03
2022-10-28T17:32:52.997Z,2.47
2022-10-28T17:35:21.168Z,2.80
2022-10-28T17:37:48.748Z,2.80
2022-10-28T17:40:16.496Z,2.70
2022-10-28T17:42:43.892Z,2.30
2022-10-28T17:45:12.004Z,2.58
2022-10-28T17:47:39.381Z,2.55
2022-10-28T17:50:07.011Z,2.67
2022-10-28T17:52:38.261Z,2.45
2022-10-28T17:55:06.458Z,2.47
2022-10-28T17:57:33.845Z,2.97
2022-10-28T18:00:01.268Z,2.83
2022-10-28T18:02:40.421Z,2.20
2022-10-28T18:05:08.162Z,2.90
2022-10-28T18:07:35.722Z,2.50
2022-10-28T18:10:03.215Z,2.90
2022-10-28T18:12:30.607Z,3.20
2022-10-28T18:14:57.966Z,2.67
2022-10-28T18:17:25.401Z,2.28
2022-10-28T18:19:55.967Z,2.60
2022-10-28T18:22:23.430Z,2.50
2022-10-28T18:24:50.783Z,2.50
2022-10-28T18:27:18.137Z,3.08
2022-10-28T18:29:45.598Z,2.78
2022-10-28T18:32:13.130Z,2.95
2022-10-28T18:34:40.546Z,2.63
2022-10-28T18:37:09.714Z,3.08
2022-10-28T18:39:37.014Z,2.80
2022-10-28T18:42:04.428Z,2.55
2022-10-28T18:44:32.021Z,2.50
2022-10-28T18:46:59.858Z,2.40
2022-10-28T18:49:27.328Z,2.75
2022-10-28T18:51:54.700Z,2.47
2022-10-28T18:54:22.101Z,2.53
2022-10-28T18:56:53.604Z,2.22
2022-10-28T18:59:22.646Z,2.53
2022-10-28T19:01:50.148Z,2.30
2022-10-28T19:04:17.704Z,2.47
2022-10-28T19:06:46.767Z,2.55
2022-10-28T19:09:14.288Z,2.33
2022-10-28T19:11:41.751Z,2.60
2022-10-28T19:14:10.430Z,2.40
2022-10-28T19:16:37.799Z,2.50
2022-10-28T19:19:05.776Z,2.60
2022-10-28T19:21:33.560Z,2.47
2022-10-28T19:24:01.020Z,2.22
2022-10-28T19:26:28.370Z,2.40
2022-10-28T19:28:55.875Z,2.33
2022-10-28T19:31:24.426Z,2.65
2022-10-28T19:33:55.332Z,2.78
2022-10-28T19:36:27.088Z,2.50
2022-10-28T19:38:54.819Z,2.65
2022-10-28T19:41:30.365Z,2.58
2022-10-28T19:43:59.288Z,2.30
2022-10-28T19:46:27.449Z,2.60
2022-10-28T19:48:55.866Z,2.47
2022-10-28T19:51:24.594Z,2.50
2022-10-28T19:53:52.736Z,2.30
2022-10-28T19:56:20.484Z,2.40
2022-10-28T19:58:55.063Z,2.88
2022-10-28T20:01:23.164Z,2.40
2022-10-28T20:03:51.363Z,2.40
2022-10-28T20:06:19.887Z,3.13
2022-10-28T20:08:48.122Z,3.00
2022-10-28T20:11:18.945Z,2.67
2022-10-28T20:13:52.512Z,2.88
2022-10-28T20:16:20.225Z,3.00
2022-10-28T20:18:47.626Z,2.90
2022-10-28T20:21:16.183Z,2.50
2022-10-28T20:23:44.511Z,2.23
2022-10-28T20:26:12.443Z,2.67
2022-10-28T20:28:40.339Z,2.70
2022-10-28T20:31:12.194Z,2.90
2022-10-28T20:33:40.724Z,2.60
2022-10-28T20:36:21.294Z,2.95
2022-10-28T20:38:48.737Z,2.72
2022-10-28T20:41:16.650Z,2.75
2022-10-28T20:43:44.050Z,2.85
2022-10-28T20:46:16.124Z,2.58
2022-10-28T20:48:46.644Z,3.05
2022-10-28T20:51:14.138Z,2.60
2022-10-28T20:53:41.525Z,2.80
2022-10-28T20:56:09.388Z,2.78
2022-10-28T20:58:36.774Z,2.72
2022-10-28T21:01:05.523Z,2.60
2022-10-28T21:03:33.157Z,2.75
2022-10-28T21:06:02.638Z,2.77
2022-10-28T21:08:30.576Z,2.80
2022-10-28T21:11:01.767Z,2.90
2022-10-28T21:13:29.188Z,2.47
2022-10-28T21:15:57.800Z,2.75
2022-10-28T21:18:25.993Z,2.78
2022-10-28T21:20:57.314Z,2.80
2022-10-28T21:23:25.207Z,2.67
2022-10-28T21:25:53.339Z,3.17
2022-10-28T21:28:20.848Z,2.83
2022-10-28T21:30:48.317Z,2.60
2022-10-28T21:33:17.761Z,3.25
2022-10-28T21:35:45.202Z,3.00
2022-10-28T21:38:13.001Z,3.17
2022-10-28T21:40:40.368Z,2.63
2022-10-28T21:43:09.122Z,3.20
2022-10-28T21:45:36.544Z,3.20
2022-10-28T21:48:03.924Z,3.07
2022-10-28T21:50:31.466Z,2.97
2022-10-28T21:53:04.027Z,2.83
2022-10-28T21:55:46.086Z,3.33
2022-10-28T21:58:14.926Z,3.28
2022-10-28T22:00:43.162Z,2.83
2022-10-28T22:03:10.927Z,2.63
2022-10-28T22:05:38.373Z,3.10
2022-10-28T22:08:05.912Z,2.90
2022-10-28T22:10:33.341Z,2.60
2022-10-28T22:13:00.781Z,3.37
2022-10-28T22:15:28.172Z,3.30
2022-10-28T22:17:55.886Z,2.87
2022-10-28T22:20:23.478Z,3.40
2022-10-28T22:22:50.840Z,2.77
2022-10-28T22:25:18.335Z,2.53
2022-10-28T22:27:45.718Z,3.10
2022-10-28T22:30:14.343Z,2.77
2022-10-28T22:32:41.724Z,2.70
2022-10-28T22:35:09.215Z,2.90
2022-10-28T22:37:36.555Z,2.70
2022-10-28T22:40:04.032Z,3.40
2022-10-28T22:42:31.507Z,2.80
2022-10-28T22:44:58.848Z,2.87
2022-10-28T22:47:26.231Z,2.97
2022-10-28T22:49:53.599Z,2.70
2022-10-28T22:52:20.979Z,2.90
2022-10-28T22:54:48.467Z,3.00
2022-10-28T22:57:15.791Z,3.10
2022-10-28T22:59:43.142Z,2.83
2022-10-28T23:02:10.598Z,3.00
2022-10-28T23:04:38.084Z,2.80
2022-10-28T23:07:05.422Z,2.97
2022-10-28T23:09:32.844Z,3.30
2022-10-28T23:12:00.263Z,2.73
2022-10-28T23:14:27.617Z,2.87
2022-10-28T23:16:55.029Z,2.87
2022-10-28T23:19:22.429Z,2.70
2022-10-28T23:21:49.835Z,2.90
2022-10-28T23:24:17.279Z,2.80
2022-10-28T23:26:44.689Z,3.13
2022-10-28T23:29:14.128Z,2.93
2022-10-28T23:31:41.592Z,3.00
2022-10-28T23:34:08.951Z,2.87
2022-10-28T23:36:36.397Z,2.97
2022-10-28T23:39:03.773Z,3.00
2022-10-28T23:41:31.170Z,3.23
2022-10-28T23:44:00.609Z,2.90
2022-10-28T23:46:29.651Z,2.90
2022-10-28T23:48:59.769Z,3.30
2022-10-28T23:51:27.103Z,2.50
2022-10-28T23:53:54.468Z,2.87
2022-10-28T23:56:22.024Z,2.80
2022-10-28T23:58:49.364Z,3.10
